Swords, Ireland
Current Conditions -  °F | °C
As of 8:00 PM on Sunday 25 Jan 2015 (Local Time) from EIDW Reporting Station
Light Rain Light Rain  
Wind Chill: 50°   Ceiling: 1800
Heat Index: 50°   Visibility: 5mi
Dew Point: 46°   Wind: 15mph
Humidity: 87%   Direction: 230°SW
Pressure: 30.15"   Gusts: NA
Location:  53.45°N, 6.22°W
Report Text: EIDW 252000Z 23013KT 8000 -RADZ FEW010 SCT014 BKN018 10/08 Q1021 NOSIG
Loading
Personal Weather Stations






























Interactive Weather Map New forecast layout! Learn more

10-Day Weather Forecast

Advertisements
Track Severe Weather on mobile